Spokane Fairchild, WA

7:32 AM PST on November 23, 2017 (GMT -0800)
Fairchild Air Force Base

Weather History for KSKA - September, 2013

Change the Weather History Date:

Sunday, September 29, 2013

  Actual Average Record
Temperature  
Mean Temperature 48 °F -  
Max Temperature 52 °F 66 °F 78 °F (1996)
Min Temperature 43 °F 42 °F 31 °F (2007)
Degree Days  
Heating Degree Days 17    
Moisture  
Dew Point 44 °F    
Average Humidity 86    
Maximum Humidity 94    
Minimum Humidity 70    
Precipitation  
Precipitation 0.22 in - - ()
Sea Level Pressure  
Sea Level Pressure 29.56 in    
Wind  
Wind Speed 21 mph (South)    
Max Wind Speed 29 mph    
Max Gust Speed 40 mph    
Visibility 10 miles    
Events Rain    
Averages and records for this station are not official NWS values.
T = Trace of Precipitation, MM = Missing Value Source: NWS Daily Summary

Daily Weather History Graph

Daily Weather History Graph

Search for Another Location

Airport or City:

Trip Planner

Search our weather history database for the weather conditions in past years. The results will help you decide how hot, cold, wet, or windy it might be!

Date:

Astronomy

Sep. 29, 2013 Rise Set
Actual Time 6:47 AM PDT 6:33 PM PDT
Civil Twilight 6:16 AM PDT 7:04 PM PDT
Nautical Twilight 5:40 AM PDT 7:39 PM PDT
Astronomical Twilight 5:04 AM PDT 8:16 PM PDT
Moon 1:13 AM PDT (9/29) 3:49 PM PDT (9/29)
Length of Visible Light 12h 47m
Length of Day
11h 45m
Waning Crescent, 26% of the Moon is Illuminated
Sep 29
Waning Crescent
Oct 4
New
Oct 11
First Quarter
Oct 18
Full
Oct 26
Last Quarter

Hourly Weather History & Observations

Time (PDT) Temp. Windchill Dew Point Humidity Pressure Visibility Wind Dir Wind Speed Gust Speed Precip Events Conditions
12:00 AM 53.6 °F - 51.8 °F 94% 29.50 in 5.0 mi South 19.6 mph 26.5 mph N/A Rain Light Rain
12:03 AM 53.6 °F - 51.8 °F 94% 29.50 in 8.0 mi SW 24.2 mph 32.2 mph N/A Rain Light Rain
12:04 AM 53.6 °F - 51.8 °F 94% 29.51 in 7.0 mi SW 28.8 mph 36.8 mph N/A Rain Light Rain
12:09 AM 51.8 °F - 50.0 °F 94% 29.51 in 5.0 mi SSW 27.6 mph 39.1 mph N/A Rain Light Rain
12:11 AM 51.8 °F - 50.0 °F 94% 29.51 in 5.0 mi SW 25.3 mph 39.1 mph N/A Rain Light Rain
12:13 AM 51.8 °F - 50.0 °F 94% 29.51 in 5.0 mi SW 24.2 mph 39.1 mph N/A Rain Light Rain
12:14 AM 51.8 °F - 50.0 °F 94% 29.51 in 5.0 mi SW 23.0 mph 39.1 mph N/A Rain Light Rain
12:24 AM 50.0 °F - 48.2 °F 94% 29.50 in 8.0 mi SW 23.0 mph 29.9 mph N/A Rain Light Rain
12:28 AM 50.0 °F - 48.2 °F 94% 29.50 in 9.0 mi SW 20.7 mph 29.9 mph N/A Rain Light Rain
12:37 AM 50.0 °F - 48.2 °F 94% 29.50 in 10.0 mi SW 21.9 mph 28.8 mph N/A   Overcast
12:39 AM 50.0 °F - 48.2 °F 94% 29.50 in 10.0 mi SW 20.7 mph 27.6 mph N/A Rain Light Rain
12:49 AM 50.0 °F - 48.2 °F 94% 29.52 in 9.0 mi SSW 18.4 mph - N/A Rain Light Rain
12:53 AM 50.0 °F - 46.4 °F 87% 29.53 in 9.0 mi SSW 16.1 mph - N/A Rain Light Rain
12:58 AM 49.1 °F - 47.3 °F 93% 29.52 in 9.0 mi SSW 18.4 mph 26.5 mph 0.07 in Rain Light Rain
1:21 AM 48.2 °F - 46.4 °F 93% 29.53 in 9.0 mi SSW 21.9 mph 31.1 mph N/A Rain Rain
1:51 AM 46.4 °F 39.0 °F 44.6 °F 93% 29.50 in 9.0 mi South 19.6 mph 25.3 mph N/A Rain Light Rain
1:58 AM 47.1 °F - 44.6 °F 91% 29.50 in 10.0 mi SSE 18.4 mph 25.3 mph 0.09 in Rain Light Rain
2:22 AM 46.4 °F 38.3 °F 44.6 °F 93% 29.54 in 10.0 mi South 23.0 mph 29.9 mph N/A Rain Light Rain
2:23 AM 46.4 °F 38.1 °F 44.6 °F 93% 29.54 in 10.0 mi South 24.2 mph 29.9 mph N/A Rain Light Rain
2:24 AM 46.4 °F 38.1 °F 44.6 °F 93% 29.54 in 10.0 mi South 24.2 mph 29.9 mph N/A Rain Light Rain
2:29 AM 46.4 °F 38.1 °F 44.6 °F 93% 29.54 in 10.0 mi South 24.2 mph 33.4 mph N/A Rain Light Rain
2:30 AM 46.4 °F 37.9 °F 44.6 °F 93% 29.54 in 10.0 mi South 25.3 mph 33.4 mph N/A Rain Light Rain
2:34 AM 46.4 °F 39.2 °F 44.6 °F 93% 29.54 in 10.0 mi South 18.4 mph 33.4 mph N/A Rain Light Rain
2:40 AM 46.4 °F 38.1 °F 44.6 °F 93% 29.54 in 10.0 mi South 24.2 mph 35.7 mph N/A Rain Light Rain
2:51 AM 46.4 °F 37.7 °F 42.8 °F 87% 29.56 in 10.0 mi South 26.5 mph 39.1 mph N/A Rain Light Rain
2:58 AM 45.7 °F 36.7 °F 43.0 °F 90% 29.56 in 10.0 mi South 26.5 mph 39.1 mph 0.00 in Rain Light Rain
3:20 AM 44.6 °F 35.3 °F 42.8 °F 93% 29.54 in 10.0 mi South 26.5 mph 35.7 mph N/A Rain Light Rain
3:50 AM 44.6 °F 35.9 °F 42.8 °F 93% 29.55 in 10.0 mi South 23.0 mph 40.3 mph N/A   Overcast
3:58 AM 44.8 °F 35.7 °F 43.2 °F 94% 29.56 in 10.0 mi South 25.3 mph 36.8 mph 0.00 in   Overcast
4:02 AM 44.6 °F 35.7 °F 42.8 °F 93% 29.56 in 10.0 mi South 24.2 mph 36.8 mph N/A   Overcast
4:35 AM 44.6 °F 35.1 °F 42.8 °F 93% 29.59 in 10.0 mi SSW 27.6 mph 34.5 mph N/A   Overcast
4:39 AM 44.6 °F 36.1 °F 42.8 °F 93% 29.59 in 10.0 mi South 21.9 mph 34.5 mph N/A   Overcast
4:54 AM 44.6 °F 36.1 °F 42.8 °F 93% 29.59 in 10.0 mi SSW 21.9 mph 31.1 mph N/A   Overcast
4:58 AM 45.0 °F 36.9 °F 43.0 °F 93% 29.60 in 10.0 mi SSW 20.7 mph 31.1 mph N/A   Overcast
5:22 AM 44.6 °F 36.9 °F 42.8 °F 93% 29.59 in 10.0 mi South 18.4 mph 27.6 mph N/A   Overcast
5:30 AM 44.6 °F 36.1 °F 42.8 °F 93% 29.60 in 10.0 mi South 21.9 mph 28.8 mph N/A   Overcast
5:58 AM 44.4 °F 35.9 °F 42.1 °F 91% 29.62 in 10.0 mi South 21.9 mph 26.5 mph 0.00 in   Overcast
6:24 AM 44.6 °F 36.1 °F 41.0 °F 87% 29.62 in 10.0 mi South 21.9 mph 27.6 mph N/A   Mostly Cloudy
6:32 AM 44.6 °F 36.4 °F 41.0 °F 87% 29.61 in 10.0 mi South 20.7 mph 28.8 mph N/A   Scattered Clouds
6:58 AM 43.7 °F 35.4 °F 40.8 °F 90% 29.63 in 10.0 mi South 19.6 mph 25.3 mph N/A   Clear
7:58 AM 45.1 °F 36.6 °F 41.2 °F 86% 29.63 in 10.0 mi South 23.0 mph 32.2 mph N/A   Clear
8:58 AM 46.6 °F - 41.2 °F 81% 29.64 in 10.0 mi South 20.7 mph 32.2 mph N/A   Partly Cloudy
9:58 AM 48.9 °F - 41.9 °F 77% 29.66 in 10.0 mi South 23.0 mph 28.8 mph N/A   Partly Cloudy
10:58 AM 49.6 °F - 41.9 °F 75% 29.68 in 10.0 mi South 18.4 mph - N/A   Mostly Cloudy
11:58 AM 50.7 °F - 42.3 °F 73% 29.68 in 10.0 mi South 17.3 mph 23.0 mph N/A   Mostly Cloudy
12:58 PM 51.4 °F - 42.1 °F 70% 29.66 in 10.0 mi South 19.6 mph - N/A   Mostly Cloudy
1:25 PM 51.8 °F - 42.8 °F 71% 29.65 in 10.0 mi South 16.1 mph 27.6 mph N/A Rain Light Rain
1:36 PM 51.8 °F - 42.8 °F 71% 29.65 in 10.0 mi South 17.3 mph 23.0 mph N/A   Mostly Cloudy
1:40 PM 51.8 °F - 42.8 °F 71% 29.65 in 10.0 mi South 17.3 mph - N/A Rain Light Rain
1:58 PM 52.0 °F - 43.3 °F 72% 29.66 in 10.0 mi South 17.3 mph 24.2 mph 0.00 in Rain Light Rain
2:03 PM 51.8 °F - 44.6 °F 76% 29.65 in 10.0 mi South 17.3 mph 27.6 mph N/A Rain Light Rain
2:04 PM 51.8 °F - 44.6 °F 76% 29.65 in 10.0 mi South 15.0 mph 27.6 mph N/A Rain Light Rain
2:14 PM 51.8 °F - 44.6 °F 76% 29.65 in 10.0 mi South 16.1 mph - N/A Rain Light Rain
2:21 PM 51.8 °F - 44.6 °F 76% 29.64 in 10.0 mi South 18.4 mph 27.6 mph N/A Rain Light Rain
2:58 PM 50.7 °F - 46.0 °F 84% 29.66 in 10.0 mi South 18.4 mph 27.6 mph 0.00 in Rain Light Rain
3:26 PM 51.8 °F - 44.6 °F 76% 29.65 in 10.0 mi South 20.7 mph 26.5 mph N/A   Mostly Cloudy
3:42 PM 51.8 °F - 44.6 °F 76% 29.65 in 10.0 mi South 20.7 mph 27.6 mph N/A Rain Light Rain
3:51 PM 51.8 °F - 42.8 °F 71% 29.64 in 10.0 mi South 17.3 mph 25.3 mph N/A   Mostly Cloudy
3:58 PM 52.3 °F - 43.3 °F 71% 29.66 in 10.0 mi South 20.7 mph 25.3 mph 0.00 in   Overcast
4:34 PM 51.8 °F - 42.8 °F 71% 29.64 in 10.0 mi South 16.1 mph - N/A Rain Light Rain
4:35 PM 51.8 °F - 42.8 °F 71% 29.64 in 10.0 mi South 16.1 mph - N/A   Scattered Clouds
4:37 PM 51.8 °F - 42.8 °F 71% 29.64 in 10.0 mi South 17.3 mph 21.9 mph N/A Rain Light Rain
4:58 PM 51.1 °F - 43.2 °F 74% 29.65 in 10.0 mi South 12.7 mph 25.3 mph 0.00 in Rain Light Rain
4:59 PM 51.8 °F - 42.8 °F 71% 29.63 in 10.0 mi South 12.7 mph 25.3 mph N/A   Partly Cloudy
5:58 PM 50.7 °F - 42.8 °F 74% 29.64 in 10.0 mi SSE 18.4 mph 25.3 mph 0.00 in   Scattered Clouds
6:44 PM 50.0 °F - 42.8 °F 76% 29.61 in 10.0 mi SSE 13.8 mph 23.0 mph N/A Rain Light Rain
6:58 PM 49.8 °F - 43.2 °F 78% 29.63 in 10.0 mi SSE 13.8 mph - 0.00 in Rain Light Rain
7:58 PM 47.1 °F - 44.6 °F 91% 29.61 in 10.0 mi SE 11.5 mph - 0.01 in Rain Light Rain
8:42 PM 46.4 °F 40.4 °F 44.6 °F 93% 29.55 in 10.0 mi SE 13.8 mph - N/A   Overcast
8:54 PM 46.4 °F 39.8 °F 42.8 °F 87% 29.55 in 10.0 mi SE 16.1 mph - N/A   Light Drizzle
8:58 PM 47.1 °F - 43.3 °F 87% 29.57 in 10.0 mi SE 15.0 mph - 0.01 in   Light Drizzle
9:36 PM 46.4 °F 39.0 °F 42.8 °F 87% 29.52 in 10.0 mi SE 19.6 mph 24.2 mph N/A   Overcast
9:46 PM 48.2 °F - 42.8 °F 82% 29.51 in 10.0 mi SE 18.4 mph - N/A Rain Light Rain
9:56 PM 46.4 °F 39.2 °F 42.8 °F 87% 29.50 in 10.0 mi SE 18.4 mph 25.3 mph N/A   Overcast
9:57 PM 46.4 °F 39.2 °F 42.8 °F 87% 29.50 in 10.0 mi SE 18.4 mph 25.3 mph N/A Rain Light Rain
9:58 PM 46.4 °F 39.2 °F 42.8 °F 87% 29.52 in 10.0 mi SE 18.4 mph 25.3 mph 0.00 in Rain Light Rain
10:00 PM 46.4 °F 39.2 °F 42.8 °F 87% 29.50 in 10.0 mi SE 18.4 mph 25.3 mph N/A   Overcast
10:03 PM 48.2 °F - 42.8 °F 82% 29.50 in 10.0 mi SE 19.6 mph 25.3 mph N/A Rain Light Rain
10:07 PM 48.2 °F - 42.8 °F 82% 29.49 in 10.0 mi SE 19.6 mph 25.3 mph N/A   Overcast
10:08 PM 48.2 °F - 42.8 °F 82% 29.49 in 10.0 mi SE 20.7 mph - N/A Rain Light Rain
10:39 PM 48.2 °F - 44.6 °F 87% 29.47 in 10.0 mi SE 20.7 mph 25.3 mph N/A   Overcast
10:58 PM 47.7 °F - 43.9 °F 87% 29.46 in 10.0 mi SE 20.7 mph 26.5 mph 0.01 in   Overcast
11:18 PM 48.2 °F - 44.6 °F 87% 29.43 in 10.0 mi SE 23.0 mph 29.9 mph N/A Rain Light Rain
11:29 PM 48.2 °F - 44.6 °F 87% 29.44 in 9.0 mi SE 21.9 mph 31.1 mph N/A Rain Light Rain
11:37 PM 48.2 °F - 44.6 °F 87% 29.43 in 10.0 mi SE 19.6 mph 31.1 mph N/A Rain Light Rain
11:40 PM 48.2 °F - 44.6 °F 87% 29.43 in 9.0 mi SE 21.9 mph 27.6 mph N/A Rain Light Rain
11:49 PM 46.4 °F 39.2 °F 44.6 °F 93% 29.42 in 9.0 mi SE 18.4 mph 27.6 mph N/A Rain Light Rain
11:58 PM 47.1 °F - 44.8 °F 92% 29.44 in 10.0 mi SE 16.1 mph - 0.03 in Rain Light Rain